Vivien A — TCYC4 — position and weather

sailwx.info

Track history (hours):
 
Tides and Currents Weather Stations Pressure Air Temp Water Temp Dewpoint Dewpoint Depression Visibility Wind Speed Wind Dir Waves Ship Positions

Vivien A

Last reported at 2016-Jan-22 21:09 UTC. Time now 2016-Feb-09 03:31 UTC.
Position N 28°31' W 013°21'.
Warning: this ship's position is 17 days out of date.

Length 210 m; draft 11.3 m.

Type: Ship (hazmat cat A). MMSI: 271040635.

Date/timePositionNaut miles runAvg speedWind from/ knotsBaromVisibWave heightAir tempDewpointWater temp
2016-Jan-22 21:09N 28°31' W 013°21'59817.8
2016-Jan-21 11:33N 35°58' W 005°31'1 0.1
2016-Jan-20 15:20N 35°57' W 005°30'4 5.1
2016-Jan-20 14:31N 35°60' W 005°27'8 8.3
2016-Jan-20 13:33N 36°04' W 005°18'7 1.8
2016-Jan-20 09:33N 36°09' W 005°11'1110.4
2016-Jan-20 08:28N 36°09' W 005°25'1 0.0
2016-Jan-18 22:21N 36°08' W 005°24'5 5.9
2016-Jan-18 21:33N 36°06' W 005°19'8 8.4
2016-Jan-18 20:33N 36°09' W 005°10'2 0.3
2016-Jan-18 13:33N 36°07' W 005°11'1110.7
2016-Jan-18 12:33N 36°01' W 005°22'  
Track history (hours):
 
Tides and Currents Weather Stations Pressure Air Temp Water Temp Dewpoint Dewpoint Depression Visibility Wind Speed Wind Dir Waves Ship Positions

Vivien A

Last reported at 2016-Jan-22 21:09 UTC. Time now 2016-Feb-09 03:31 UTC.
Position N 28°31' W 013°21'.
Warning: this ship's position is 17 days out of date.

Length 210 m; draft 11.3 m.

Type: Ship (hazmat cat A). MMSI: 271040635.

Date/timePositionNaut miles runAvg speedWind from/ knotsBaromVisibWave heightAir tempDewpointWater temp
2016-Jan-22 21:09N 28°31' W 013°21'59817.8
2016-Jan-21 11:33N 35°58' W 005°31'1 0.1
2016-Jan-20 15:20N 35°57' W 005°30'4 5.1
2016-Jan-20 14:31N 35°60' W 005°27'8 8.3
2016-Jan-20 13:33N 36°04' W 005°18'7 1.8
2016-Jan-20 09:33N 36°09' W 005°11'1110.4
2016-Jan-20 08:28N 36°09' W 005°25'1 0.0
2016-Jan-18 22:21N 36°08' W 005°24'5 5.9
2016-Jan-18 21:33N 36°06' W 005°19'8 8.4
2016-Jan-18 20:33N 36°09' W 005°10'2 0.3
2016-Jan-18 13:33N 36°07' W 005°11'1110.7
2016-Jan-18 12:33N 36°01' W 005°22'  

Dump ship's entire track history